Thailine 5 — 9WFF5 — position and weather

sailwx.info

Track history (hours):
 
Tides and Currents Weather Stations Pressure Air Temp Water Temp Dewpoint Dewpoint Depression Visibility Wind Speed Wind Dir Waves Ship Positions

Thailine 5

Last reported at 2014-Aug-30 22:07 UTC. Time now 2014-Sep-02 18:54 UTC.
Position N 34°44' E 139°40'.

; draft 5.5 m.

Type: Cargo ship. MMSI: 533399000.

Date/timePositionNaut miles runAvg speedWind from/ knotsBaromVisibWave heightAir tempDewpointWater temp
2014-Aug-30 22:07N 34°44' E 139°40'711.4
2014-Aug-30 21:31N 34°47' E 139°47'1111.1
2014-Aug-30 20:33N 34°52' E 139°59'1111.5
2014-Aug-30 19:33N 34°58' E 140°11'1512.0
2014-Aug-30 18:20N 35°05' E 140°27'1012.5
2014-Aug-30 17:33N 35°12' E 140°35'1612.3
2014-Aug-30 16:16N 35°24' E 140°46'2411.6
2014-Aug-30 14:14N 35°45' E 141°01'1111.8
2014-Aug-30 13:15N 35°56' E 141°04'  
2014-Aug-23 03:31N 35°22' E 139°53'0 0.0
2014-Aug-23 02:31N 35°22' E 139°53'0 0.0
2014-Aug-23 01:28N 35°22' E 139°53'0 0.1
2014-Aug-23 00:31N 35°22' E 139°53'0 0.0
2014-Aug-22 23:28N 35°22' E 139°53'0 0.0
2014-Aug-22 22:13N 35°22' E 139°53'0 0.0
2014-Aug-22 21:31N 35°22' E 139°53'0 0.0
2014-Aug-22 20:31N 35°22' E 139°53'0 0.0
2014-Aug-22 19:31N 35°22' E 139°53'0 0.0
2014-Aug-22 18:25N 35°22' E 139°53'0 0.0
2014-Aug-22 17:28N 35°22' E 139°53'0 0.0
2014-Aug-22 16:31N 35°22' E 139°53'0 0.0
2014-Aug-22 15:31N 35°22' E 139°53'0 0.0
2014-Aug-22 14:31N 35°22' E 139°53'0 0.0
2014-Aug-22 13:31N 35°22' E 139°53'0 0.0
2014-Aug-22 12:31N 35°22' E 139°53'0 0.0
2014-Aug-22 11:31N 35°22' E 139°53'0 0.0
2014-Aug-22 10:31N 35°22' E 139°53'0 0.0
2014-Aug-22 09:31N 35°22' E 139°53'0 0.0
2014-Aug-22 08:28N 35°22' E 139°53'0 0.0
2014-Aug-22 07:28N 35°22' E 139°53'0 0.0
2014-Aug-22 06:22N 35°22' E 139°53'0 0.0
2014-Aug-22 05:31N 35°22' E 139°53'0 0.0
2014-Aug-22 04:31N 35°22' E 139°53'0 0.0
2014-Aug-22 03:31N 35°22' E 139°53'0 0.0
2014-Aug-22 02:31N 35°22' E 139°53'0 0.0
2014-Aug-22 01:16N 35°22' E 139°53'0 0.0
2014-Aug-22 00:31N 35°22' E 139°53'0 0.0
2014-Aug-21 23:31N 35°22' E 139°53'0 0.0
2014-Aug-21 22:28N 35°22' E 139°53'0 0.1
2014-Aug-21 21:34N 35°22' E 139°53'2 2.2
2014-Aug-21 20:32N 35°23' E 139°51'0 0.0
2014-Aug-21 19:29N 35°23' E 139°51'0 0.0
2014-Aug-21 18:32N 35°23' E 139°51'0 0.1
2014-Aug-21 17:32N 35°23' E 139°51'0 0.0
2014-Aug-21 16:23N 35°23' E 139°51'0 0.0
2014-Aug-21 15:32N 35°23' E 139°51'0 0.0
2014-Aug-21 14:29N 35°23' E 139°51'0 0.0
2014-Aug-21 13:26N 35°23' E 139°51'0 0.0
2014-Aug-21 12:23N 35°23' E 139°51'0 0.0
2014-Aug-21 11:29N 35°23' E 139°51'0 0.0
2014-Aug-21 10:29N 35°23' E 139°51'0 0.0
2014-Aug-21 09:23N 35°23' E 139°51'0 0.0
2014-Aug-21 08:33N 35°23' E 139°51'6 5.7
2014-Aug-21 07:33N 35°29' E 139°51'9 9.0
2014-Aug-21 06:33N 35°36' E 139°58'5 4.7
2014-Aug-21 05:32N 35°40' E 139°58'0 0.0
2014-Aug-21 04:20N 35°40' E 139°58'0 0.0
2014-Aug-21 03:32N 35°40' E 139°58'0 0.0
2014-Aug-21 02:32N 35°40' E 139°58'0 0.0
2014-Aug-21 01:29N 35°40' E 139°58'0 0.0
2014-Aug-21 00:32N 35°40' E 139°58'0 0.0
2014-Aug-20 23:32N 35°40' E 139°58'0 0.0
2014-Aug-20 22:32N 35°40' E 139°58'  
Track history (hours):
 
Tides and Currents Weather Stations Pressure Air Temp Water Temp Dewpoint Dewpoint Depression Visibility Wind Speed Wind Dir Waves Ship Positions

Thailine 5

Last reported at 2014-Aug-30 22:07 UTC. Time now 2014-Sep-02 18:54 UTC.
Position N 34°44' E 139°40'.

; draft 5.5 m.

Type: Cargo ship. MMSI: 533399000.

Date/timePositionNaut miles runAvg speedWind from/ knotsBaromVisibWave heightAir tempDewpointWater temp
2014-Aug-30 22:07N 34°44' E 139°40'711.4
2014-Aug-30 21:31N 34°47' E 139°47'1111.1
2014-Aug-30 20:33N 34°52' E 139°59'1111.5
2014-Aug-30 19:33N 34°58' E 140°11'1512.0
2014-Aug-30 18:20N 35°05' E 140°27'1012.5
2014-Aug-30 17:33N 35°12' E 140°35'1612.3
2014-Aug-30 16:16N 35°24' E 140°46'2411.6
2014-Aug-30 14:14N 35°45' E 141°01'1111.8
2014-Aug-30 13:15N 35°56' E 141°04'  
2014-Aug-23 03:31N 35°22' E 139°53'0 0.0
2014-Aug-23 02:31N 35°22' E 139°53'0 0.0
2014-Aug-23 01:28N 35°22' E 139°53'0 0.1
2014-Aug-23 00:31N 35°22' E 139°53'0 0.0
2014-Aug-22 23:28N 35°22' E 139°53'0 0.0
2014-Aug-22 22:13N 35°22' E 139°53'0 0.0
2014-Aug-22 21:31N 35°22' E 139°53'0 0.0
2014-Aug-22 20:31N 35°22' E 139°53'0 0.0
2014-Aug-22 19:31N 35°22' E 139°53'0 0.0
2014-Aug-22 18:25N 35°22' E 139°53'0 0.0
2014-Aug-22 17:28N 35°22' E 139°53'0 0.0
2014-Aug-22 16:31N 35°22' E 139°53'0 0.0
2014-Aug-22 15:31N 35°22' E 139°53'0 0.0
2014-Aug-22 14:31N 35°22' E 139°53'0 0.0
2014-Aug-22 13:31N 35°22' E 139°53'0 0.0
2014-Aug-22 12:31N 35°22' E 139°53'0 0.0
2014-Aug-22 11:31N 35°22' E 139°53'0 0.0
2014-Aug-22 10:31N 35°22' E 139°53'0 0.0
2014-Aug-22 09:31N 35°22' E 139°53'0 0.0
2014-Aug-22 08:28N 35°22' E 139°53'0 0.0
2014-Aug-22 07:28N 35°22' E 139°53'0 0.0
2014-Aug-22 06:22N 35°22' E 139°53'0 0.0
2014-Aug-22 05:31N 35°22' E 139°53'0 0.0
2014-Aug-22 04:31N 35°22' E 139°53'0 0.0
2014-Aug-22 03:31N 35°22' E 139°53'0 0.0
2014-Aug-22 02:31N 35°22' E 139°53'0 0.0
2014-Aug-22 01:16N 35°22' E 139°53'0 0.0
2014-Aug-22 00:31N 35°22' E 139°53'0 0.0
2014-Aug-21 23:31N 35°22' E 139°53'0 0.0
2014-Aug-21 22:28N 35°22' E 139°53'0 0.1
2014-Aug-21 21:34N 35°22' E 139°53'2 2.2
2014-Aug-21 20:32N 35°23' E 139°51'0 0.0
2014-Aug-21 19:29N 35°23' E 139°51'0 0.0
2014-Aug-21 18:32N 35°23' E 139°51'0 0.1
2014-Aug-21 17:32N 35°23' E 139°51'0 0.0
2014-Aug-21 16:23N 35°23' E 139°51'0 0.0
2014-Aug-21 15:32N 35°23' E 139°51'0 0.0
2014-Aug-21 14:29N 35°23' E 139°51'0 0.0
2014-Aug-21 13:26N 35°23' E 139°51'0 0.0
2014-Aug-21 12:23N 35°23' E 139°51'0 0.0
2014-Aug-21 11:29N 35°23' E 139°51'0 0.0
2014-Aug-21 10:29N 35°23' E 139°51'0 0.0
2014-Aug-21 09:23N 35°23' E 139°51'0 0.0
2014-Aug-21 08:33N 35°23' E 139°51'6 5.7
2014-Aug-21 07:33N 35°29' E 139°51'9 9.0
2014-Aug-21 06:33N 35°36' E 139°58'5 4.7
2014-Aug-21 05:32N 35°40' E 139°58'0 0.0
2014-Aug-21 04:20N 35°40' E 139°58'0 0.0
2014-Aug-21 03:32N 35°40' E 139°58'0 0.0
2014-Aug-21 02:32N 35°40' E 139°58'0 0.0
2014-Aug-21 01:29N 35°40' E 139°58'0 0.0
2014-Aug-21 00:32N 35°40' E 139°58'0 0.0
2014-Aug-20 23:32N 35°40' E 139°58'0 0.0
2014-Aug-20 22:32N 35°40' E 139°58'  

Dump ship's entire track history